Norfolk, Virginia
Traffic Map
Current Weather Conditions
Norfolk, Virginia
Clear
Clear
17°
Feels Like: 17°
Wind Chill: 17° Ceiling: Unl
Heat Index: 17° Visibility: 10mi
Dew Point: 10° Wind: 10mph
Humidity: 65% Direction: 350° (N)
Pressure: 30.03in Gusts: 0mph
Raw Report DataKORF 301651Z 35009KT 10SM CLR 17/10 A3003 RMK AO2 SLP168 T01670100
Traffic Incident Summary
Active as of:
Severity:
Category:
InformationThere was an issue retrieving the traffic information for this location. Please try a different location or try again shortly.
Advertisements
Track Severe Weather on mobile